createdAt,value
2023-05-12T00:03:16.307Z,15
2023-05-12T00:08:22.351Z,15
2023-05-12T00:13:28.434Z,15
2023-05-12T00:18:34.513Z,15
2023-05-12T00:23:40.633Z,15
2023-05-12T00:28:46.728Z,15.4
2023-05-12T00:33:52.806Z,15
2023-05-12T00:38:58.930Z,15
2023-05-12T00:44:05.007Z,15
2023-05-12T00:49:11.109Z,14.7
2023-05-12T00:54:17.284Z,15
2023-05-12T00:59:22.333Z,14.7
2023-05-12T01:04:28.426Z,15
2023-05-12T01:09:34.516Z,14.7
2023-05-12T01:14:40.610Z,15.4
2023-05-12T01:19:46.704Z,14.7
2023-05-12T01:24:52.810Z,15
2023-05-12T01:29:58.915Z,15
2023-05-12T01:35:04.984Z,14.7
2023-05-12T01:40:11.087Z,14.7
2023-05-12T01:45:17.178Z,14.7
2023-05-12T01:50:23.281Z,14.7
2023-05-12T01:55:29.452Z,14.7
2023-05-12T02:00:35.526Z,14.7
2023-05-12T02:05:40.573Z,15
2023-05-12T02:10:46.681Z,14.7
2023-05-12T02:15:52.778Z,14.7
2023-05-12T02:20:58.864Z,14.7
2023-05-12T02:26:04.979Z,14.7
2023-05-12T02:31:11.050Z,14.7
2023-05-12T02:36:17.162Z,14.7
2023-05-12T02:41:23.263Z,14.4
2023-05-12T02:46:29.346Z,14.1
2023-05-12T02:51:35.441Z,14.7
2023-05-12T02:56:41.544Z,14.4
2023-05-12T03:01:47.631Z,14.4
2023-05-12T03:06:53.734Z,15
2023-05-12T03:11:58.850Z,15
2023-05-12T03:17:04.956Z,14.7
2023-05-12T03:22:11.046Z,14.7
2023-05-12T03:27:17.126Z,14.7
2023-05-12T03:32:23.232Z,14.4
2023-05-12T03:37:29.336Z,14.7
2023-05-12T03:42:35.428Z,14.4
2023-05-12T03:47:41.524Z,15
2023-05-12T03:52:47.619Z,14.7
2023-05-12T03:57:53.713Z,14.7
2023-05-12T04:02:59.806Z,14.4
2023-05-12T04:08:05.921Z,14.4
2023-05-12T04:13:12.004Z,14.4
2023-05-12T04:18:17.126Z,14.4
2023-05-12T04:23:23.212Z,14.4
2023-05-12T04:28:29.317Z,14.4
2023-05-12T04:38:41.535Z,14.4
2023-05-12T04:43:47.605Z,15
2023-05-12T04:48:53.695Z,15
2023-05-12T04:53:59.851Z,14.1
2023-05-12T04:59:05.905Z,14.1
2023-05-12T05:04:11.995Z,14.4
2023-05-12T05:09:18.176Z,14.4
2023-05-12T05:14:24.184Z,14.1
2023-05-12T05:19:30.265Z,14.4
2023-05-12T05:24:35.380Z,14.4
2023-05-12T05:29:41.506Z,14.1
2023-05-12T05:34:47.614Z,14.1
2023-05-12T05:39:53.698Z,14.1
2023-05-12T05:44:59.762Z,14.4
2023-05-12T05:50:05.930Z,14.4
2023-05-12T05:55:12.028Z,14.1
2023-05-12T06:00:18.098Z,14.1
2023-05-12T06:05:24.148Z,14.4
2023-05-12T06:10:30.355Z,14.4
2023-05-12T06:15:36.339Z,13.8
2023-05-12T06:20:42.436Z,14.4
2023-05-12T06:25:48.594Z,14.7
2023-05-12T06:30:53.663Z,14.4
2023-05-12T06:35:59.766Z,14.1
2023-05-12T06:41:05.877Z,14.4
2023-05-12T06:46:11.961Z,14.1
2023-05-12T06:51:18.040Z,14.1
2023-05-12T06:56:24.132Z,14.1
2023-05-12T07:01:30.285Z,14.1
2023-05-12T07:06:36.318Z,14.7
2023-05-12T07:11:42.487Z,14.4
2023-05-12T07:16:48.586Z,14.4
2023-05-12T07:21:54.621Z,14.1
2023-05-12T07:27:00.703Z,14.1
2023-05-12T07:32:06.801Z,14.4
2023-05-12T07:37:11.923Z,14.1
2023-05-12T07:42:18.072Z,14.1
2023-05-12T07:47:24.121Z,14.1
2023-05-12T07:52:30.206Z,14.4
2023-05-12T07:57:36.289Z,14.4
2023-05-12T08:02:42.412Z,15
2023-05-12T08:07:48.491Z,14.7
2023-05-12T08:12:54.573Z,14.1
2023-05-12T08:18:00.681Z,14.4
2023-05-12T08:23:06.796Z,14.7
2023-05-12T08:28:12.877Z,14.1
2023-05-12T08:33:18.971Z,14.1
2023-05-12T08:38:25.087Z,14.7
2023-05-12T08:43:30.168Z,14.4
2023-05-12T08:48:36.270Z,14.4
2023-05-12T08:53:42.357Z,14.7
2023-05-12T08:58:48.597Z,14.4
2023-05-12T09:03:54.731Z,14.7
2023-05-12T09:09:00.711Z,14.4
2023-05-12T09:14:06.814Z,14.7
2023-05-12T09:19:12.950Z,15
2023-05-12T09:24:18.963Z,15
2023-05-12T09:29:25.185Z,14.1
2023-05-12T09:34:31.128Z,14.4
2023-05-12T09:39:37.293Z,14.4
2023-05-12T09:44:43.351Z,14.7
2023-05-12T09:49:48.500Z,14.7
2023-05-12T09:54:54.725Z,14.4
2023-05-12T10:00:00.672Z,14.7
2023-05-12T10:05:06.711Z,14.4
2023-05-12T10:10:12.881Z,14.7
2023-05-12T10:15:18.913Z,14.7
2023-05-12T10:20:25.020Z,14.7
2023-05-12T10:25:31.194Z,14.7
2023-05-12T10:30:37.233Z,15
2023-05-12T10:35:43.370Z,14.7
2023-05-12T10:40:49.513Z,14.7
2023-05-12T10:45:55.653Z,14.7
2023-05-12T10:51:01.595Z,14.7
2023-05-12T10:56:06.687Z,14.7
2023-05-12T11:01:12.863Z,15
2023-05-12T11:06:18.913Z,15
2023-05-12T11:11:24.988Z,14.7
2023-05-12T11:16:31.099Z,15
2023-05-12T11:21:37.239Z,15.4
2023-05-12T11:26:43.285Z,15
2023-05-12T11:31:49.392Z,15
2023-05-12T11:36:55.466Z,15.4
2023-05-12T11:42:01.585Z,15.4
2023-05-12T11:47:07.711Z,15.4
2023-05-12T11:52:13.769Z,15.4
2023-05-12T11:57:19.865Z,15.4
2023-05-12T12:02:24.980Z,15
2023-05-12T12:07:31.147Z,15.4
2023-05-12T12:12:37.174Z,15.4
2023-05-12T12:17:43.267Z,15.4
2023-05-12T12:22:49.393Z,15.7
2023-05-12T12:27:55.473Z,15.4
2023-05-12T12:33:01.567Z,15.7
2023-05-12T12:38:07.675Z,15.7
2023-05-12T12:43:13.820Z,15.4
2023-05-12T12:48:19.857Z,15.7
2023-05-12T12:53:26.010Z,15.4
2023-05-12T12:58:32.061Z,15.7
2023-05-12T13:03:38.161Z,16.3
2023-05-12T13:08:43.261Z,16
2023-05-12T13:13:49.363Z,16
2023-05-12T13:18:55.441Z,16.3
2023-05-12T13:24:01.556Z,15.7
2023-05-12T13:29:07.661Z,15.7
2023-05-12T13:34:13.749Z,16
2023-05-12T13:39:19.813Z,16
2023-05-12T13:44:25.909Z,16
2023-05-12T13:49:32.011Z,16
2023-05-12T13:54:38.117Z,16.7
2023-05-12T13:59:44.222Z,16.3
2023-05-12T14:04:50.304Z,16.3
2023-05-12T14:09:56.403Z,16
2023-05-12T14:15:01.512Z,16.7
2023-05-12T14:20:07.608Z,16.3
2023-05-12T14:25:13.685Z,16.3
2023-05-12T14:30:19.812Z,17
2023-05-12T14:35:25.888Z,16.3
2023-05-12T14:40:31.994Z,16.3
2023-05-12T14:45:38.208Z,16.3
2023-05-12T14:50:44.315Z,16.3
2023-05-12T14:55:50.288Z,16.3
2023-05-12T15:00:56.439Z,16.7
2023-05-12T15:06:02.464Z,16.7
2023-05-12T15:11:08.724Z,16.3
2023-05-12T15:16:14.928Z,16.3
2023-05-12T15:21:19.978Z,17
2023-05-12T15:26:26.035Z,16.7
2023-05-12T15:31:32.093Z,16.7
2023-05-12T15:36:38.282Z,16.3
2023-05-12T15:41:44.166Z,16
2023-05-12T15:46:50.312Z,17
2023-05-12T15:51:55.600Z,16.7
2023-05-12T15:57:01.625Z,16.7
2023-05-12T16:02:07.640Z,16.7
2023-05-12T16:07:13.784Z,16.3
2023-05-12T16:12:19.976Z,16.3
2023-05-12T16:17:25.854Z,16.3
2023-05-12T16:22:32.012Z,16.7
2023-05-12T16:27:38.068Z,16.7
2023-05-12T16:32:44.145Z,16.3
2023-05-12T16:37:50.258Z,16.7
2023-05-12T16:42:56.320Z,16.7
2023-05-12T16:48:02.536Z,16.3
2023-05-12T16:53:08.501Z,16.3
2023-05-12T16:58:13.623Z,17
2023-05-12T17:03:19.794Z,16.7
2023-05-12T17:08:25.851Z,16.7
2023-05-12T17:13:31.914Z,16.3
2023-05-12T17:18:37.996Z,17
2023-05-12T17:23:44.251Z,17
2023-05-12T17:28:50.231Z,16.7
2023-05-12T17:33:56.302Z,16.7
2023-05-12T17:39:02.399Z,16
2023-05-12T17:44:08.552Z,16.7
2023-05-12T17:49:14.641Z,16.3
2023-05-12T17:54:20.673Z,16.7
2023-05-12T17:59:26.950Z,16.3
2023-05-12T18:04:32.044Z,17
2023-05-12T18:09:38.129Z,16.3
2023-05-12T18:14:44.199Z,16.3
2023-05-12T18:19:50.330Z,16.3
2023-05-12T18:24:56.423Z,16.3
2023-05-12T18:30:02.366Z,16.3
2023-05-12T18:35:08.489Z,16
2023-05-12T18:40:14.674Z,16.7
2023-05-12T18:45:20.768Z,16.3
2023-05-12T18:50:26.835Z,16
2023-05-12T18:55:33.127Z,16.3
2023-05-12T19:00:38.995Z,16.3
2023-05-12T19:05:45.039Z,16.3
2023-05-12T19:10:50.197Z,16
2023-05-12T19:15:56.458Z,16.7
2023-05-12T19:21:02.423Z,16.3
2023-05-12T19:26:08.458Z,16.3
2023-05-12T19:31:14.659Z,16.3
2023-05-12T19:36:20.731Z,16
2023-05-12T19:41:26.722Z,16.3
2023-05-12T19:46:32.811Z,16.3
2023-05-12T19:51:38.961Z,16.3
2023-05-12T19:56:45.019Z,17
2023-05-12T20:01:51.221Z,16
2023-05-12T20:06:57.200Z,16.3
2023-05-12T20:12:03.316Z,16
2023-05-12T20:17:08.476Z,15.7
2023-05-12T20:22:14.526Z,15.7
2023-05-12T20:27:20.738Z,16
2023-05-12T20:32:26.694Z,16.3
2023-05-12T20:37:32.797Z,15.7
2023-05-12T20:42:38.924Z,16
2023-05-12T20:47:44.037Z,16.3
2023-05-12T20:52:49.194Z,16
2023-05-12T20:57:55.219Z,16.3
2023-05-12T21:03:01.408Z,16
2023-05-12T21:08:07.407Z,15.7
2023-05-12T21:13:13.520Z,15.7
2023-05-12T21:18:19.601Z,15.7
2023-05-12T21:23:25.797Z,16.3
2023-05-12T21:28:31.868Z,15.7
2023-05-12T21:33:37.886Z,15.7
2023-05-12T21:38:43.976Z,16
2023-05-12T21:43:50.085Z,16
2023-05-12T21:48:56.211Z,16
2023-05-12T21:54:02.342Z,15.7
2023-05-12T21:59:07.401Z,15.7
2023-05-12T22:04:13.506Z,16
2023-05-12T22:09:19.642Z,15.7
2023-05-12T22:14:25.688Z,15.7
2023-05-12T22:19:31.766Z,15.4
2023-05-12T22:24:37.913Z,15.7
2023-05-12T22:29:43.983Z,15.7
2023-05-12T22:34:50.098Z,15.4
2023-05-12T22:39:56.148Z,15.7
2023-05-12T22:45:02.257Z,15.7
2023-05-12T22:50:08.379Z,15.7
2023-05-12T22:55:14.484Z,15.7
2023-05-12T23:00:20.541Z,15.7
2023-05-12T23:05:25.708Z,15.7
2023-05-12T23:10:31.762Z,15.7
2023-05-12T23:15:37.954Z,15.4
2023-05-12T23:20:43.944Z,15.4
2023-05-12T23:25:50.065Z,15.4
2023-05-12T23:30:56.162Z,15
2023-05-12T23:36:02.285Z,15.4
2023-05-12T23:41:08.364Z,15.4
2023-05-12T23:46:14.434Z,16
2023-05-12T23:51:20.687Z,15.4
2023-05-12T23:56:26.643Z,15.7
